sensor_id;sensor_type;location;lat;lon;timestamp;pressure;altitude;pressure_sealevel;temperature;humidity
28626;BME280;18905;42.668;23.364;2022-07-10T00:00:34;95005.59;;;16.17;100.00
28626;BME280;18905;42.668;23.364;2022-07-10T00:03:01;94981.19;;;15.90;100.00
28626;BME280;18905;42.668;23.364;2022-07-10T00:05:27;95009.41;;;16.32;100.00
28626;BME280;18905;42.668;23.364;2022-07-10T00:07:53;94917.50;;;15.60;100.00
28626;BME280;18905;42.668;23.364;2022-07-10T00:10:19;94985.03;;;16.20;100.00
28626;BME280;18905;42.668;23.364;2022-07-10T00:12:48;94986.25;;;16.22;100.00
28626;BME280;18905;42.668;23.364;2022-07-10T00:15:15;94999.72;;;16.34;100.00
28626;BME280;18905;42.668;23.364;2022-07-10T00:17:44;95001.75;;;16.37;100.00
28626;BME280;18905;42.668;23.364;2022-07-10T00:20:11;94970.81;;;16.11;100.00
28626;BME280;18905;42.668;23.364;2022-07-10T00:22:37;94949.66;;;16.04;100.00
28626;BME280;18905;42.668;23.364;2022-07-10T00:25:09;94991.66;;;16.38;100.00
28626;BME280;18905;42.668;23.364;2022-07-10T00:27:34;94982.16;;;16.32;100.00
28626;BME280;18905;42.668;23.364;2022-07-10T00:30:00;94942.78;;;16.10;100.00
28626;BME280;18905;42.668;23.364;2022-07-10T00:32:26;94926.84;;;15.78;100.00
28626;BME280;18905;42.668;23.364;2022-07-10T00:34:52;94988.75;;;16.31;100.00
28626;BME280;18905;42.668;23.364;2022-07-10T00:37:17;94988.88;;;16.19;100.00
28626;BME280;18905;42.668;23.364;2022-07-10T00:39:43;94983.81;;;16.17;100.00
28626;BME280;18905;42.668;23.364;2022-07-10T00:42:11;94980.28;;;16.17;100.00
28626;BME280;18905;42.668;23.364;2022-07-10T00:44:40;94983.25;;;16.27;100.00
28626;BME280;18905;42.668;23.364;2022-07-10T00:47:07;94873.16;;;15.59;100.00
28626;BME280;18905;42.668;23.364;2022-07-10T00:49:34;94973.22;;;15.81;100.00
28626;BME280;18905;42.668;23.364;2022-07-10T00:52:10;94853.94;;;15.21;100.00
28626;BME280;18905;42.668;23.364;2022-07-10T00:54:37;94957.66;;;15.82;100.00
28626;BME280;18905;42.668;23.364;2022-07-10T00:57:04;94971.75;;;16.18;100.00
28626;BME280;18905;42.668;23.364;2022-07-10T00:59:34;94973.88;;;16.09;100.00
28626;BME280;18905;42.668;23.364;2022-07-10T01:02:00;94940.53;;;15.97;100.00
28626;BME280;18905;42.668;23.364;2022-07-10T01:04:26;94955.09;;;16.04;100.00
28626;BME280;18905;42.668;23.364;2022-07-10T01:06:52;94956.72;;;16.09;100.00
28626;BME280;18905;42.668;23.364;2022-07-10T01:09:18;94968.75;;;16.23;100.00
28626;BME280;18905;42.668;23.364;2022-07-10T01:11:43;94976.81;;;16.01;100.00
28626;BME280;18905;42.668;23.364;2022-07-10T01:14:10;94965.09;;;16.00;100.00
28626;BME280;18905;42.668;23.364;2022-07-10T01:16:35;94957.63;;;15.97;100.00
28626;BME280;18905;42.668;23.364;2022-07-10T01:19:01;94965.84;;;16.16;100.00
28626;BME280;18905;42.668;23.364;2022-07-10T01:21:35;94970.47;;;16.12;100.00
28626;BME280;18905;42.668;23.364;2022-07-10T01:24:08;94968.03;;;16.26;100.00
28626;BME280;18905;42.668;23.364;2022-07-10T01:26:34;94893.59;;;15.69;100.00
28626;BME280;18905;42.668;23.364;2022-07-10T01:29:03;94958.69;;;16.08;100.00
28626;BME280;18905;42.668;23.364;2022-07-10T01:31:29;94954.00;;;16.09;100.00
28626;BME280;18905;42.668;23.364;2022-07-10T01:33:55;94956.53;;;16.33;100.00
28626;BME280;18905;42.668;23.364;2022-07-10T01:36:21;94922.56;;;16.11;100.00
28626;BME280;18905;42.668;23.364;2022-07-10T01:38:47;94948.53;;;16.24;100.00
28626;BME280;18905;42.668;23.364;2022-07-10T01:41:13;94942.63;;;16.03;100.00
28626;BME280;18905;42.668;23.364;2022-07-10T01:43:39;94934.97;;;15.93;100.00
28626;BME280;18905;42.668;23.364;2022-07-10T01:46:10;94940.56;;;15.81;100.00
28626;BME280;18905;42.668;23.364;2022-07-10T01:48:37;94942.34;;;16.08;100.00
28626;BME280;18905;42.668;23.364;2022-07-10T01:51:03;94914.91;;;15.82;100.00
28626;BME280;18905;42.668;23.364;2022-07-10T01:53:29;94829.91;;;15.39;100.00
28626;BME280;18905;42.668;23.364;2022-07-10T01:55:55;94900.94;;;15.84;100.00
28626;BME280;18905;42.668;23.364;2022-07-10T01:58:20;94825.59;;;15.22;100.00
28626;BME280;18905;42.668;23.364;2022-07-10T02:00:46;94942.88;;;15.98;100.00
28626;BME280;18905;42.668;23.364;2022-07-10T02:03:11;94847.53;;;15.45;100.00
28626;BME280;18905;42.668;23.364;2022-07-10T02:05:55;94920.50;;;15.89;100.00
28626;BME280;18905;42.668;23.364;2022-07-10T02:08:21;94875.78;;;15.71;100.00
28626;BME280;18905;42.668;23.364;2022-07-10T02:10:46;94915.38;;;15.69;100.00
28626;BME280;18905;42.668;23.364;2022-07-10T02:13:12;94928.44;;;15.79;100.00
28626;BME280;18905;42.668;23.364;2022-07-10T02:15:40;94915.19;;;15.77;100.00
28626;BME280;18905;42.668;23.364;2022-07-10T02:18:06;94909.66;;;15.58;100.00
28626;BME280;18905;42.668;23.364;2022-07-10T02:20:32;94914.25;;;15.54;100.00
28626;BME280;18905;42.668;23.364;2022-07-10T02:22:58;94931.50;;;15.77;100.00
28626;BME280;18905;42.668;23.364;2022-07-10T02:25:24;94899.81;;;15.69;100.00
28626;BME280;18905;42.668;23.364;2022-07-10T02:27:49;94917.66;;;15.51;100.00
28626;BME280;18905;42.668;23.364;2022-07-10T02:30:15;94825.53;;;15.03;100.00
28626;BME280;18905;42.668;23.364;2022-07-10T02:32:40;94863.31;;;15.55;100.00
28626;BME280;18905;42.668;23.364;2022-07-10T02:35:06;94873.75;;;15.68;100.00
28626;BME280;18905;42.668;23.364;2022-07-10T02:37:31;94877.00;;;15.74;100.00
28626;BME280;18905;42.668;23.364;2022-07-10T02:39:57;94918.88;;;16.04;100.00
28626;BME280;18905;42.668;23.364;2022-07-10T02:42:22;94934.97;;;15.93;100.00
28626;BME280;18905;42.668;23.364;2022-07-10T02:44:47;94904.38;;;15.65;100.00
28626;BME280;18905;42.668;23.364;2022-07-10T02:47:13;94912.13;;;15.63;100.00
28626;BME280;18905;42.668;23.364;2022-07-10T02:49:39;94926.47;;;15.79;100.00
28626;BME280;18905;42.668;23.364;2022-07-10T02:52:04;94867.00;;;15.16;100.00
28626;BME280;18905;42.668;23.364;2022-07-10T02:54:30;94841.22;;;15.10;100.00
28626;BME280;18905;42.668;23.364;2022-07-10T02:56:55;94929.47;;;15.74;100.00
28626;BME280;18905;42.668;23.364;2022-07-10T02:59:21;94894.22;;;15.62;100.00
28626;BME280;18905;42.668;23.364;2022-07-10T03:01:46;94877.81;;;15.43;100.00
28626;BME280;18905;42.668;23.364;2022-07-10T03:04:11;94896.00;;;15.39;100.00
28626;BME280;18905;42.668;23.364;2022-07-10T03:06:37;94886.41;;;15.30;100.00
28626;BME280;18905;42.668;23.364;2022-07-10T03:09:03;94886.47;;;15.33;100.00
28626;BME280;18905;42.668;23.364;2022-07-10T03:11:28;94912.81;;;15.60;100.00
28626;BME280;18905;42.668;23.364;2022-07-10T03:13:53;94920.63;;;15.62;100.00
28626;BME280;18905;42.668;23.364;2022-07-10T03:16:19;94935.91;;;15.66;100.00
28626;BME280;18905;42.668;23.364;2022-07-10T03:18:44;94894.13;;;15.59;100.00
28626;BME280;18905;42.668;23.364;2022-07-10T03:21:11;94926.97;;;16.00;100.00
28626;BME280;18905;42.668;23.364;2022-07-10T03:23:36;94882.53;;;15.96;100.00
28626;BME280;18905;42.668;23.364;2022-07-10T03:26:04;94924.28;;;16.54;100.00
28626;BME280;18905;42.668;23.364;2022-07-10T03:28:30;94923.00;;;16.48;100.00
28626;BME280;18905;42.668;23.364;2022-07-10T03:30:56;94955.19;;;16.80;100.00
28626;BME280;18905;42.668;23.364;2022-07-10T03:33:21;94945.22;;;16.50;100.00
28626;BME280;18905;42.668;23.364;2022-07-10T03:35:47;94890.16;;;16.25;100.00
28626;BME280;18905;42.668;23.364;2022-07-10T03:38:12;94904.28;;;16.12;100.00
28626;BME280;18905;42.668;23.364;2022-07-10T03:40:37;94900.66;;;15.89;100.00
28626;BME280;18905;42.668;23.364;2022-07-10T03:43:03;94932.75;;;16.14;100.00
28626;BME280;18905;42.668;23.364;2022-07-10T03:45:29;94843.31;;;15.47;100.00
28626;BME280;18905;42.668;23.364;2022-07-10T03:47:54;94916.78;;;15.97;100.00
28626;BME280;18905;42.668;23.364;2022-07-10T03:50:20;94916.22;;;16.07;100.00
28626;BME280;18905;42.668;23.364;2022-07-10T03:52:45;94836.28;;;15.62;100.00
28626;BME280;18905;42.668;23.364;2022-07-10T03:55:11;94950.38;;;16.20;100.00
28626;BME280;18905;42.668;23.364;2022-07-10T03:57:37;94941.78;;;16.18;100.00
28626;BME280;18905;42.668;23.364;2022-07-10T04:00:25;94946.31;;;16.45;100.00
28626;BME280;18905;42.668;23.364;2022-07-10T04:03:01;94933.44;;;16.46;100.00
28626;BME280;18905;42.668;23.364;2022-07-10T04:05:27;94945.69;;;16.36;100.00
28626;BME280;18905;42.668;23.364;2022-07-10T04:07:53;94919.16;;;16.33;100.00
28626;BME280;18905;42.668;23.364;2022-07-10T04:10:19;94908.25;;;16.33;100.00
28626;BME280;18905;42.668;23.364;2022-07-10T04:12:44;94936.69;;;16.51;100.00
28626;BME280;18905;42.668;23.364;2022-07-10T04:15:10;94932.81;;;16.90;100.00
28626;BME280;18905;42.668;23.364;2022-07-10T04:17:36;94929.91;;;17.02;100.00
28626;BME280;18905;42.668;23.364;2022-07-10T04:20:02;94929.56;;;17.26;100.00
28626;BME280;18905;42.668;23.364;2022-07-10T04:22:28;94916.22;;;16.99;100.00
28626;BME280;18905;42.668;23.364;2022-07-10T04:24:54;94928.13;;;17.32;100.00
28626;BME280;18905;42.668;23.364;2022-07-10T04:27:19;94843.38;;;16.80;100.00
28626;BME280;18905;42.668;23.364;2022-07-10T04:29:45;94903.25;;;17.37;100.00
28626;BME280;18905;42.668;23.364;2022-07-10T04:32:10;94922.19;;;17.49;100.00
28626;BME280;18905;42.668;23.364;2022-07-10T04:34:37;94932.00;;;17.76;100.00
28626;BME280;18905;42.668;23.364;2022-07-10T04:37:02;94933.22;;;18.05;100.00
28626;BME280;18905;42.668;23.364;2022-07-10T04:39:28;94828.19;;;17.24;100.00
28626;BME280;18905;42.668;23.364;2022-07-10T04:41:53;94890.06;;;18.17;100.00
28626;BME280;18905;42.668;23.364;2022-07-10T04:44:19;94884.25;;;18.78;100.00
28626;BME280;18905;42.668;23.364;2022-07-10T04:46:44;94879.78;;;18.63;100.00
28626;BME280;18905;42.668;23.364;2022-07-10T04:49:10;94906.66;;;18.31;100.00
28626;BME280;18905;42.668;23.364;2022-07-10T04:51:35;94905.31;;;18.77;100.00
28626;BME280;18905;42.668;23.364;2022-07-10T04:54:01;94908.13;;;18.48;100.00
28626;BME280;18905;42.668;23.364;2022-07-10T04:56:26;94825.16;;;18.07;100.00
28626;BME280;18905;42.668;23.364;2022-07-10T04:58:52;94927.91;;;19.00;100.00
28626;BME280;18905;42.668;23.364;2022-07-10T05:01:17;94904.66;;;19.60;100.00
28626;BME280;18905;42.668;23.364;2022-07-10T05:03:43;94921.00;;;20.00;100.00
28626;BME280;18905;42.668;23.364;2022-07-10T05:06:08;94814.34;;;18.84;100.00
28626;BME280;18905;42.668;23.364;2022-07-10T05:08:34;94887.06;;;19.61;100.00
28626;BME280;18905;42.668;23.364;2022-07-10T05:10:59;94829.69;;;19.28;100.00
28626;BME280;18905;42.668;23.364;2022-07-10T05:13:25;94905.09;;;20.16;100.00
28626;BME280;18905;42.668;23.364;2022-07-10T05:15:51;94830.28;;;19.58;100.00
28626;BME280;18905;42.668;23.364;2022-07-10T05:18:16;94885.03;;;19.51;100.00
28626;BME280;18905;42.668;23.364;2022-07-10T05:20:42;94902.38;;;18.60;100.00
28626;BME280;18905;42.668;23.364;2022-07-10T05:23:09;94923.44;;;19.62;100.00
28626;BME280;18905;42.668;23.364;2022-07-10T05:25:35;94844.84;;;19.22;100.00
28626;BME280;18905;42.668;23.364;2022-07-10T05:28:03;94903.69;;;20.43;100.00
28626;BME280;18905;42.668;23.364;2022-07-10T05:30:29;94899.72;;;20.37;100.00
28626;BME280;18905;42.668;23.364;2022-07-10T05:32:54;94822.16;;;18.82;100.00
28626;BME280;18905;42.668;23.364;2022-07-10T05:35:20;94851.75;;;20.07;100.00
28626;BME280;18905;42.668;23.364;2022-07-10T05:37:46;94833.34;;;20.07;100.00
28626;BME280;18905;42.668;23.364;2022-07-10T05:40:11;94916.94;;;20.31;100.00
28626;BME280;18905;42.668;23.364;2022-07-10T05:42:37;94869.72;;;19.97;100.00
28626;BME280;18905;42.668;23.364;2022-07-10T05:45:02;94904.03;;;21.28;100.00
28626;BME280;18905;42.668;23.364;2022-07-10T05:47:28;94836.28;;;20.39;100.00
28626;BME280;18905;42.668;23.364;2022-07-10T05:49:54;94906.06;;;20.48;100.00
28626;BME280;18905;42.668;23.364;2022-07-10T05:52:19;94916.50;;;20.22;100.00
28626;BME280;18905;42.668;23.364;2022-07-10T05:54:45;94915.72;;;21.00;100.00
28626;BME280;18905;42.668;23.364;2022-07-10T05:57:10;94907.38;;;20.75;100.00
28626;BME280;18905;42.668;23.364;2022-07-10T05:59:36;94883.88;;;19.59;100.00
28626;BME280;18905;42.668;23.364;2022-07-10T06:02:02;94916.31;;;20.58;100.00
28626;BME280;18905;42.668;23.364;2022-07-10T06:04:27;94842.22;;;19.83;100.00
28626;BME280;18905;42.668;23.364;2022-07-10T06:06:53;94885.44;;;20.79;100.00
28626;BME280;18905;42.668;23.364;2022-07-10T06:09:18;94906.09;;;21.80;100.00
28626;BME280;18905;42.668;23.364;2022-07-10T06:11:44;94827.34;;;20.49;100.00
28626;BME280;18905;42.668;23.364;2022-07-10T06:14:11;94904.50;;;21.75;100.00
28626;BME280;18905;42.668;23.364;2022-07-10T06:16:37;94840.13;;;21.94;100.00
28626;BME280;18905;42.668;23.364;2022-07-10T06:19:03;94912.72;;;22.17;100.00
28626;BME280;18905;42.668;23.364;2022-07-10T06:21:28;94824.50;;;20.35;100.00
28626;BME280;18905;42.668;23.364;2022-07-10T06:23:54;94886.69;;;20.92;100.00
28626;BME280;18905;42.668;23.364;2022-07-10T06:26:19;94871.84;;;21.18;100.00
28626;BME280;18905;42.668;23.364;2022-07-10T06:28:45;94886.00;;;22.21;96.21
28626;BME280;18905;42.668;23.364;2022-07-10T06:31:10;94868.75;;;21.44;97.00
28626;BME280;18905;42.668;23.364;2022-07-10T06:33:36;94913.53;;;21.97;100.00
28626;BME280;18905;42.668;23.364;2022-07-10T06:36:02;94858.50;;;21.20;100.00
28626;BME280;18905;42.668;23.364;2022-07-10T06:38:27;94875.78;;;21.24;100.00
28626;BME280;18905;42.668;23.364;2022-07-10T06:40:53;94850.09;;;20.67;100.00
28626;BME280;18905;42.668;23.364;2022-07-10T06:43:18;94868.34;;;21.35;100.00
28626;BME280;18905;42.668;23.364;2022-07-10T06:45:44;94904.84;;;22.30;96.55
28626;BME280;18905;42.668;23.364;2022-07-10T06:48:10;94840.16;;;23.01;90.09
28626;BME280;18905;42.668;23.364;2022-07-10T06:50:35;94893.53;;;24.33;81.15
28626;BME280;18905;42.668;23.364;2022-07-10T06:53:02;94838.56;;;23.65;81.94
28626;BME280;18905;42.668;23.364;2022-07-10T06:55:29;94811.69;;;23.28;83.47
28626;BME280;18905;42.668;23.364;2022-07-10T06:57:55;94890.19;;;23.57;83.08
28626;BME280;18905;42.668;23.364;2022-07-10T07:00:21;94820.94;;;23.52;78.43
28626;BME280;18905;42.668;23.364;2022-07-10T07:02:46;94875.41;;;23.85;78.17
28626;BME280;18905;42.668;23.364;2022-07-10T07:05:12;94794.00;;;23.70;78.17
28626;BME280;18905;42.668;23.364;2022-07-10T07:07:38;94874.84;;;23.53;83.50
28626;BME280;18905;42.668;23.364;2022-07-10T07:10:05;94877.00;;;22.21;91.06
28626;BME280;18905;42.668;23.364;2022-07-10T07:12:31;94879.00;;;21.89;90.56
28626;BME280;18905;42.668;23.364;2022-07-10T07:14:56;94786.75;;;21.77;88.53
28626;BME280;18905;42.668;23.364;2022-07-10T07:17:21;94786.19;;;22.35;88.72
28626;BME280;18905;42.668;23.364;2022-07-10T07:19:49;94889.69;;;23.08;84.95
28626;BME280;18905;42.668;23.364;2022-07-10T07:22:33;94849.31;;;22.77;86.30
28626;BME280;18905;42.668;23.364;2022-07-10T07:25:17;94877.19;;;22.82;89.23
28626;BME280;18905;42.668;23.364;2022-07-10T07:27:42;94832.13;;;22.52;91.49
28626;BME280;18905;42.668;23.364;2022-07-10T07:30:10;94896.59;;;22.26;93.40
28626;BME280;18905;42.668;23.364;2022-07-10T07:32:37;94851.03;;;22.25;89.36
28626;BME280;18905;42.668;23.364;2022-07-10T07:35:04;94831.34;;;22.34;90.67
28626;BME280;18905;42.668;23.364;2022-07-10T07:40:07;94880.00;;;23.51;90.27
28626;BME280;18905;42.668;23.364;2022-07-10T07:42:33;94834.34;;;23.50;90.56
28626;BME280;18905;42.668;23.364;2022-07-10T07:44:58;94871.22;;;23.66;86.42
28626;BME280;18905;42.668;23.364;2022-07-10T07:47:24;94881.25;;;24.38;81.78
28626;BME280;18905;42.668;23.364;2022-07-10T07:49:50;94816.38;;;23.31;84.34
28626;BME280;18905;42.668;23.364;2022-07-10T07:52:15;94874.72;;;23.74;88.24
28626;BME280;18905;42.668;23.364;2022-07-10T07:54:41;94836.00;;;23.88;82.98
28626;BME280;18905;42.668;23.364;2022-07-10T07:57:06;94864.03;;;23.76;83.27
28626;BME280;18905;42.668;23.364;2022-07-10T07:59:32;94874.09;;;24.03;84.03
28626;BME280;18905;42.668;23.364;2022-07-10T08:01:57;94853.13;;;23.04;87.16
28626;BME280;18905;42.668;23.364;2022-07-10T08:04:23;94860.56;;;24.16;87.20
28626;BME280;18905;42.668;23.364;2022-07-10T08:06:48;94828.22;;;24.20;81.07
28626;BME280;18905;42.668;23.364;2022-07-10T08:09:18;94864.78;;;24.27;77.80
28626;BME280;18905;42.668;23.364;2022-07-10T08:11:43;94832.69;;;24.44;75.06
28626;BME280;18905;42.668;23.364;2022-07-10T08:14:09;94825.75;;;24.29;72.99
28626;BME280;18905;42.668;23.364;2022-07-10T08:16:34;94818.56;;;24.38;71.82
28626;BME280;18905;42.668;23.364;2022-07-10T08:18:59;94873.41;;;23.89;74.56
28626;BME280;18905;42.668;23.364;2022-07-10T08:21:25;94872.69;;;25.26;85.59
28626;BME280;18905;42.668;23.364;2022-07-10T08:23:50;94851.44;;;25.76;79.22
28626;BME280;18905;42.668;23.364;2022-07-10T08:26:16;94876.09;;;25.90;66.42
28626;BME280;18905;42.668;23.364;2022-07-10T08:28:42;94880.75;;;26.42;65.36
28626;BME280;18905;42.668;23.364;2022-07-10T08:31:07;94851.53;;;25.16;74.67
28626;BME280;18905;42.668;23.364;2022-07-10T08:33:32;94880.63;;;24.57;73.08
28626;BME280;18905;42.668;23.364;2022-07-10T08:35:58;94846.66;;;25.27;72.80
28626;BME280;18905;42.668;23.364;2022-07-10T08:38:25;94868.91;;;25.69;69.16
28626;BME280;18905;42.668;23.364;2022-07-10T08:40:53;94877.56;;;24.85;73.85
28626;BME280;18905;42.668;23.364;2022-07-10T08:43:23;94847.31;;;24.78;73.72
28626;BME280;18905;42.668;23.364;2022-07-10T08:45:50;94880.88;;;25.36;64.55
28626;BME280;18905;42.668;23.364;2022-07-10T08:48:21;94859.28;;;25.28;67.18
28626;BME280;18905;42.668;23.364;2022-07-10T08:50:47;94871.69;;;25.13;66.50
28626;BME280;18905;42.668;23.364;2022-07-10T08:53:16;94783.06;;;25.00;73.30
28626;BME280;18905;42.668;23.364;2022-07-10T08:55:47;94860.50;;;24.23;73.19
28626;BME280;18905;42.668;23.364;2022-07-10T08:58:13;94836.28;;;24.00;80.05
28626;BME280;18905;42.668;23.364;2022-07-10T09:00:39;94795.88;;;23.80;69.66
28626;BME280;18905;42.668;23.364;2022-07-10T09:03:04;94828.50;;;24.66;77.67
28626;BME280;18905;42.668;23.364;2022-07-10T09:05:30;94803.06;;;24.81;77.19
28626;BME280;18905;42.668;23.364;2022-07-10T09:07:55;94849.03;;;24.95;69.67
28626;BME280;18905;42.668;23.364;2022-07-10T09:10:24;94844.84;;;24.13;71.16
28626;BME280;18905;42.668;23.364;2022-07-10T09:12:55;94855.22;;;24.39;66.58
28626;BME280;18905;42.668;23.364;2022-07-10T09:15:23;94820.88;;;25.07;68.90
28626;BME280;18905;42.668;23.364;2022-07-10T09:17:50;94829.97;;;25.04;66.02
28626;BME280;18905;42.668;23.364;2022-07-10T09:20:37;94807.31;;;25.92;63.28
28626;BME280;18905;42.668;23.364;2022-07-10T09:25:35;94815.06;;;26.23;57.47
28626;BME280;18905;42.668;23.364;2022-07-10T09:28:01;94839.00;;;26.76;57.47
28626;BME280;18905;42.668;23.364;2022-07-10T09:30:35;94837.53;;;27.62;56.95
28626;BME280;18905;42.668;23.364;2022-07-10T09:33:28;94835.03;;;27.67;53.00
28626;BME280;18905;42.668;23.364;2022-07-10T09:36:00;94775.56;;;27.17;54.81
28626;BME280;18905;42.668;23.364;2022-07-10T09:41:15;94793.91;;;24.88;59.47
28626;BME280;18905;42.668;23.364;2022-07-10T09:43:44;94847.03;;;25.55;57.67
28626;BME280;18905;42.668;23.364;2022-07-10T09:46:14;94829.75;;;25.97;56.29
28626;BME280;18905;42.668;23.364;2022-07-10T09:48:40;94798.16;;;25.49;58.98
28626;BME280;18905;42.668;23.364;2022-07-10T09:51:07;94844.69;;;26.03;59.59
28626;BME280;18905;42.668;23.364;2022-07-10T09:53:43;94846.19;;;26.08;59.73
28626;BME280;18905;42.668;23.364;2022-07-10T09:56:11;94839.19;;;25.24;61.54
28626;BME280;18905;42.668;23.364;2022-07-10T09:58:37;94777.22;;;24.68;62.75
28626;BME280;18905;42.668;23.364;2022-07-10T10:01:07;94824.81;;;25.62;63.89
28626;BME280;18905;42.668;23.364;2022-07-10T10:03:38;94829.06;;;25.67;57.06
28626;BME280;18905;42.668;23.364;2022-07-10T10:06:16;94819.78;;;26.46;53.47
28626;BME280;18905;42.668;23.364;2022-07-10T10:11:31;94817.00;;;26.69;55.02
28626;BME280;18905;42.668;23.364;2022-07-10T10:13:57;94784.19;;;26.67;53.55
28626;BME280;18905;42.668;23.364;2022-07-10T10:16:25;94790.31;;;26.16;54.95
28626;BME280;18905;42.668;23.364;2022-07-10T10:18:51;94789.75;;;26.25;56.29
28626;BME280;18905;42.668;23.364;2022-07-10T10:21:36;94813.50;;;26.22;58.19
28626;BME280;18905;42.668;23.364;2022-07-10T10:24:02;94791.19;;;26.33;58.55
28626;BME280;18905;42.668;23.364;2022-07-10T10:26:28;94792.72;;;26.14;52.20
28626;BME280;18905;42.668;23.364;2022-07-10T10:28:56;94792.78;;;25.88;53.26
28626;BME280;18905;42.668;23.364;2022-07-10T10:31:27;94789.53;;;25.70;55.02
28626;BME280;18905;42.668;23.364;2022-07-10T10:33:56;94812.28;;;25.54;55.39
28626;BME280;18905;42.668;23.364;2022-07-10T10:39:24;94764.97;;;25.72;59.50
28626;BME280;18905;42.668;23.364;2022-07-10T10:41:52;94795.81;;;26.39;57.92
28626;BME280;18905;42.668;23.364;2022-07-10T10:46:54;94808.41;;;24.65;71.62
28626;BME280;18905;42.668;23.364;2022-07-10T10:49:27;94810.84;;;24.90;63.45
28626;BME280;18905;42.668;23.364;2022-07-10T10:52:12;94801.31;;;24.64;70.68
28626;BME280;18905;42.668;23.364;2022-07-10T10:57:22;94801.16;;;24.41;71.62
28626;BME280;18905;42.668;23.364;2022-07-10T10:59:49;94798.03;;;25.03;65.91
28626;BME280;18905;42.668;23.364;2022-07-10T11:02:21;94799.75;;;25.20;65.69
28626;BME280;18905;42.668;23.364;2022-07-10T11:04:49;94766.44;;;25.04;72.60
28626;BME280;18905;42.668;23.364;2022-07-10T11:10:39;94787.03;;;24.99;72.99
28626;BME280;18905;42.668;23.364;2022-07-10T11:13:07;94792.56;;;25.26;64.54
28626;BME280;18905;42.668;23.364;2022-07-10T11:15:35;94694.75;;;24.40;59.10
28626;BME280;18905;42.668;23.364;2022-07-10T11:18:12;94766.03;;;24.79;68.53
28626;BME280;18905;42.668;23.364;2022-07-10T11:20:43;94763.00;;;24.96;67.13
28626;BME280;18905;42.668;23.364;2022-07-10T11:26:03;94789.41;;;25.01;68.16
28626;BME280;18905;42.668;23.364;2022-07-10T11:28:55;94786.56;;;25.34;60.19
28626;BME280;18905;42.668;23.364;2022-07-10T11:31:25;94764.81;;;25.59;64.12
28626;BME280;18905;42.668;23.364;2022-07-10T11:33:55;94752.69;;;25.27;57.56
28626;BME280;18905;42.668;23.364;2022-07-10T11:36:25;94783.00;;;25.34;61.44
28626;BME280;18905;42.668;23.364;2022-07-10T11:39:02;94789.63;;;24.83;64.19
28626;BME280;18905;42.668;23.364;2022-07-10T11:41:28;94778.63;;;24.50;64.76
28626;BME280;18905;42.668;23.364;2022-07-10T11:46:28;94795.84;;;25.17;62.64
28626;BME280;18905;42.668;23.364;2022-07-10T11:48:54;94788.00;;;24.86;66.30
28626;BME280;18905;42.668;23.364;2022-07-10T11:51:32;94790.81;;;24.52;72.70
28626;BME280;18905;42.668;23.364;2022-07-10T11:56:25;94793.81;;;25.21;59.47
28626;BME280;18905;42.668;23.364;2022-07-10T11:58:57;94779.22;;;25.21;58.22
28626;BME280;18905;42.668;23.364;2022-07-10T12:01:23;94754.78;;;25.92;57.46
28626;BME280;18905;42.668;23.364;2022-07-10T12:03:59;94794.81;;;25.84;54.57
28626;BME280;18905;42.668;23.364;2022-07-10T12:06:25;94782.22;;;25.33;51.45
28626;BME280;18905;42.668;23.364;2022-07-10T12:08:51;94780.16;;;26.29;54.44
28626;BME280;18905;42.668;23.364;2022-07-10T12:11:18;94760.72;;;26.13;53.00
28626;BME280;18905;42.668;23.364;2022-07-10T12:13:45;94770.09;;;25.73;50.84
28626;BME280;18905;42.668;23.364;2022-07-10T12:16:11;94750.16;;;25.39;50.78
28626;BME280;18905;42.668;23.364;2022-07-10T12:18:37;94776.06;;;24.96;57.35
28626;BME280;18905;42.668;23.364;2022-07-10T12:21:04;94746.84;;;24.95;58.25
28626;BME280;18905;42.668;23.364;2022-07-10T12:23:30;94682.72;;;23.94;60.79
28626;BME280;18905;42.668;23.364;2022-07-10T12:25:55;94761.59;;;24.55;61.82
28626;BME280;18905;42.668;23.364;2022-07-10T12:28:22;94746.66;;;24.49;62.70
28626;BME280;18905;42.668;23.364;2022-07-10T12:30:49;94748.03;;;24.34;62.42
28626;BME280;18905;42.668;23.364;2022-07-10T12:33:21;94776.53;;;24.91;64.61
28626;BME280;18905;42.668;23.364;2022-07-10T12:35:54;94784.16;;;25.36;60.78
28626;BME280;18905;42.668;23.364;2022-07-10T12:38:29;94785.78;;;25.80;60.44
28626;BME280;18905;42.668;23.364;2022-07-10T12:41:13;94784.34;;;24.96;61.25
28626;BME280;18905;42.668;23.364;2022-07-10T12:43:40;94747.28;;;25.20;62.44
28626;BME280;18905;42.668;23.364;2022-07-10T12:48:37;94748.94;;;25.63;58.55
28626;BME280;18905;42.668;23.364;2022-07-10T12:51:22;94780.72;;;25.29;56.40
28626;BME280;18905;42.668;23.364;2022-07-10T12:53:48;94782.03;;;25.44;53.73
28626;BME280;18905;42.668;23.364;2022-07-10T12:56:36;94760.66;;;25.21;54.41
28626;BME280;18905;42.668;23.364;2022-07-10T12:59:11;94749.25;;;24.66;54.87
28626;BME280;18905;42.668;23.364;2022-07-10T13:01:43;94781.22;;;25.47;57.30
28626;BME280;18905;42.668;23.364;2022-07-10T13:04:09;94782.81;;;24.58;56.08
28626;BME280;18905;42.668;23.364;2022-07-10T13:06:36;94772.09;;;24.67;51.11
28626;BME280;18905;42.668;23.364;2022-07-10T13:09:08;94783.19;;;25.20;52.23
28626;BME280;18905;42.668;23.364;2022-07-10T13:11:42;94775.69;;;25.47;52.54
28626;BME280;18905;42.668;23.364;2022-07-10T13:14:08;94766.41;;;25.07;49.95
28626;BME280;18905;42.668;23.364;2022-07-10T13:16:33;94738.09;;;24.73;50.76
28626;BME280;18905;42.668;23.364;2022-07-10T13:18:59;94781.31;;;25.13;52.58